Port Sanilac, MI

4:28 PM EDT on August 27, 2016 (GMT -0400)
KMIPORTS2 | | Change Station

Elev 604 ft 43.47 °N, 82.56 °W | Updated 5 seconds ago

Light Drizzle
Light Drizzle
70.3 °F
Feels Like 70.3 °F
N
8.9
Wind Variable Wind from East
Gusts 9.0 mph

Today
High -- | Low -- °F
--% Chance of Precip.
Yesterday
High -- | Low -- °F
Precip. -- in
Pressure 30.12 in
Visibility 10.0 miles
Clouds Scattered Clouds 3000 ft
Scattered Clouds 3500 ft
Mostly Cloudy 5000 ft
Dew Point 68 °F
Humidity 94%
Rainfall 0.07 in
Snow Depth Not available.
6:49 AM 8:13 PM
Waning Crescent, 22% visible
METAR KBAX 272019Z AUTO 13004KT 10SM -DZ SCT030 SCT035 BKN050 21/20 A3012 RMK AO2
Pressure 30.12 in
Visibility 10.0 miles
Clouds Scattered Clouds 3000 ft
Scattered Clouds 3500 ft
Mostly Cloudy 5000 ft
Dew Point 68 °F
Humidity 94%
Rainfall 0.07 in
Snow Depth Not available.
6:49 AM 8:13 PM
Waning Crescent, 22% visible
METAR KBAX 272019Z AUTO 13004KT 10SM -DZ SCT030 SCT035 BKN050 21/20 A3012 RMK AO2

10-Day Weather Forecast

Almanac

Astronomy

Aug. 27, 2016 Rise Set
Actual Time
Civil Twilight
Nautical Twilight
Astronomical Twilight
Moon
Length of Visible Light
Length of Day
Tomorrow will be .
, % of the Moon is Illuminated

Today's Extremes

State Highs State Lows

Community

WunderPhotos

Upload Photos

1,935,434 photos uploaded!

WunderBlog® & News

Nearby

Air Quality

  Air Quality AQ Index Pollutant
Not available.

Snow Depth

Station Depth Elevation

Earthquake Activity

City Distance Mag. Time & Date
Minimum magnitude displayed is 2.5.

Coastal Water Temperatures

Place Temperature

Stations

Nearby Weather Stations

Station Location Temp. Windchill Dew Point Humidity Wind Precip. Elev Updated Type
                   

Watches & Warnings

There are currently no watches in effect.